createdAt,value
2019-02-17T00:01:08.798Z,33.37
2019-02-17T00:03:39.166Z,33.53
2019-02-17T00:06:08.123Z,36.27
2019-02-17T00:08:37.144Z,32.93
2019-02-17T00:11:06.158Z,29.40
2019-02-17T00:13:35.132Z,30.80
2019-02-17T00:16:04.249Z,32.63
2019-02-17T00:18:33.328Z,32.57
2019-02-17T00:21:02.362Z,33.60
2019-02-17T00:23:31.351Z,28.77
2019-02-17T00:26:00.350Z,32.40
2019-02-17T00:28:29.412Z,29.47
2019-02-17T00:30:58.446Z,30.90
2019-02-17T00:33:27.518Z,33.50
2019-02-17T00:35:56.578Z,31.27
2019-02-17T00:38:25.718Z,34.47
2019-02-17T00:40:54.781Z,34.43
2019-02-17T00:43:23.854Z,31.70
2019-02-17T00:45:52.839Z,32.33
2019-02-17T00:48:21.882Z,35.43
2019-02-17T00:50:50.922Z,30.37
2019-02-17T00:53:19.898Z,35.47
2019-02-17T00:55:48.922Z,35.90
2019-02-17T00:58:17.932Z,31.77
2019-02-17T01:00:47.070Z,32.90
2019-02-17T01:03:16.152Z,33.33
2019-02-17T01:05:45.217Z,29.63
2019-02-17T01:08:14.139Z,34.57
2019-02-17T01:10:43.119Z,32.07
2019-02-17T01:13:12.128Z,31.60
2019-02-17T01:15:41.152Z,33.33
2019-02-17T01:18:10.121Z,34.40
2019-02-17T01:20:39.142Z,33.17
2019-02-17T01:23:08.183Z,34.13
2019-02-17T01:25:37.206Z,35.33
2019-02-17T01:28:06.207Z,30.67
2019-02-17T01:30:35.232Z,32.47
2019-02-17T01:33:04.378Z,35.50
2019-02-17T01:35:33.335Z,34.37
2019-02-17T01:38:02.290Z,32.03
2019-02-17T01:40:31.337Z,36.70
2019-02-17T01:43:00.393Z,31.67
2019-02-17T01:45:29.415Z,33.40
2019-02-17T01:47:58.489Z,34.93
2019-02-17T01:50:27.473Z,33.63
2019-02-17T01:52:56.612Z,34.53
2019-02-17T01:55:25.718Z,32.20
2019-02-17T01:57:54.724Z,34.23
2019-02-17T02:00:23.769Z,37.83
2019-02-17T02:02:52.812Z,33.57
2019-02-17T02:05:21.821Z,36.20
2019-02-17T02:07:50.897Z,33.70
2019-02-17T02:10:19.907Z,34.70
2019-02-17T02:12:48.937Z,33.50
2019-02-17T02:15:18.013Z,37.50
2019-02-17T02:17:47.093Z,34.17
2019-02-17T02:20:16.223Z,34.90
2019-02-17T02:22:45.344Z,33.20
2019-02-17T02:25:14.312Z,32.17
2019-02-17T02:27:43.388Z,32.43
2019-02-17T02:30:12.879Z,34.33
2019-02-17T02:32:41.934Z,35.40
2019-02-17T02:35:11.004Z,31.47
2019-02-17T02:37:40.028Z,35.73
2019-02-17T02:40:09.061Z,33.50
2019-02-17T02:42:38.220Z,34.63
2019-02-17T02:45:08.109Z,34.73
2019-02-17T02:47:37.239Z,35.17
2019-02-17T02:50:06.577Z,35.27
2019-02-17T02:52:35.590Z,28.60
2019-02-17T02:55:04.807Z,35.43
2019-02-17T02:57:33.849Z,33.13
2019-02-17T03:00:02.915Z,35.00
2019-02-17T03:02:31.965Z,34.17
2019-02-17T03:05:01.035Z,34.77
2019-02-17T03:07:30.080Z,32.13
2019-02-17T03:09:59.222Z,33.83
2019-02-17T03:12:28.280Z,34.97
2019-02-17T03:14:57.422Z,34.10
2019-02-17T03:17:26.865Z,34.83
2019-02-17T03:19:55.978Z,38.20
2019-02-17T03:22:24.918Z,36.63
2019-02-17T03:24:53.955Z,32.83
2019-02-17T03:27:23.341Z,34.73
2019-02-17T03:30:04.060Z,33.97
2019-02-17T03:32:23.132Z,30.23
2019-02-17T03:34:52.156Z,33.43
2019-02-17T03:37:21.171Z,34.33
2019-02-17T03:39:50.190Z,36.03
2019-02-17T03:42:19.282Z,39.40
2019-02-17T03:44:48.297Z,31.57
2019-02-17T03:47:17.411Z,32.17
2019-02-17T03:49:46.518Z,33.27
2019-02-17T03:52:15.527Z,34.13
2019-02-17T03:54:44.520Z,32.37
2019-02-17T03:57:13.527Z,39.30
2019-02-17T03:59:42.483Z,34.03
2019-02-17T04:02:11.508Z,32.40
2019-02-17T04:04:40.568Z,32.13
2019-02-17T04:07:09.744Z,31.97
2019-02-17T04:09:38.714Z,35.53
2019-02-17T04:12:07.742Z,33.73
2019-02-17T04:14:36.791Z,36.97
2019-02-17T04:17:05.822Z,32.23
2019-02-17T04:19:34.833Z,33.60
2019-02-17T04:22:03.855Z,35.40
2019-02-17T04:24:32.848Z,35.67
2019-02-17T04:27:01.860Z,33.43
2019-02-17T04:29:30.895Z,32.87
2019-02-17T04:31:59.930Z,34.57
2019-02-17T04:34:28.884Z,38.30
2019-02-17T04:36:57.934Z,34.47
2019-02-17T04:39:26.881Z,32.90
2019-02-17T04:41:55.896Z,33.13
2019-02-17T04:44:24.874Z,34.20
2019-02-17T04:46:53.929Z,29.87
2019-02-17T04:49:22.982Z,35.77
2019-02-17T04:51:52.001Z,37.80
2019-02-17T04:54:20.977Z,33.37
2019-02-17T04:56:49.959Z,37.47
2019-02-17T04:59:19.025Z,35.93
2019-02-17T05:01:48.052Z,36.50
2019-02-17T05:04:17.067Z,35.07
2019-02-17T05:06:46.120Z,33.57
2019-02-17T05:09:15.179Z,36.33
2019-02-17T05:11:44.261Z,36.60
2019-02-17T05:14:13.300Z,34.03
2019-02-17T05:16:42.328Z,37.30
2019-02-17T05:19:11.374Z,33.17
2019-02-17T05:21:40.433Z,34.43
2019-02-17T05:24:09.492Z,33.53
2019-02-17T05:26:38.559Z,37.57
2019-02-17T05:29:07.602Z,33.07
2019-02-17T05:31:36.636Z,37.07
2019-02-17T05:34:05.601Z,32.20
2019-02-17T05:36:34.576Z,37.40
2019-02-17T05:39:05.742Z,38.33
2019-02-17T05:41:34.781Z,33.13
2019-02-17T05:44:03.802Z,36.27
2019-02-17T05:46:32.800Z,31.27
2019-02-17T05:49:01.822Z,32.73
2019-02-17T05:51:30.823Z,39.37
2019-02-17T05:53:59.814Z,34.70
2019-02-17T05:56:28.827Z,32.97
2019-02-17T05:59:17.053Z,38.20
2019-02-17T06:01:46.058Z,32.70
2019-02-17T06:04:15.183Z,32.23
2019-02-17T06:06:44.195Z,34.93
2019-02-17T06:09:13.210Z,37.20
2019-02-17T06:11:42.273Z,32.60
2019-02-17T06:14:11.267Z,34.40
2019-02-17T06:16:40.280Z,35.77
2019-02-17T06:19:09.303Z,33.73
2019-02-17T06:21:38.346Z,36.20
2019-02-17T06:24:07.342Z,37.20
2019-02-17T06:26:36.297Z,30.73
2019-02-17T06:29:05.323Z,35.90
2019-02-17T06:31:34.290Z,34.70
2019-02-17T06:34:03.311Z,37.27
2019-02-17T06:36:32.368Z,33.67
2019-02-17T06:39:01.384Z,36.97
2019-02-17T06:41:30.425Z,33.57
2019-02-17T06:43:59.482Z,33.70
2019-02-17T06:46:32.303Z,33.10
2019-02-17T06:49:01.400Z,34.73
2019-02-17T06:51:30.442Z,32.77
2019-02-17T06:54:01.599Z,31.73
2019-02-17T06:56:35.554Z,35.20
2019-02-17T06:59:04.560Z,34.10
2019-02-17T07:01:33.697Z,30.43
2019-02-17T07:04:03.858Z,33.77
2019-02-17T07:06:42.524Z,36.10
2019-02-17T07:09:11.552Z,31.83
2019-02-17T07:11:40.645Z,33.13
2019-02-17T07:14:11.122Z,35.83
2019-02-17T07:16:40.211Z,32.03
2019-02-17T07:19:09.255Z,35.80
2019-02-17T07:21:57.489Z,33.13
2019-02-17T07:24:26.573Z,32.57
2019-02-17T07:26:55.625Z,35.77
2019-02-17T07:29:24.624Z,32.27
2019-02-17T07:31:54.884Z,32.20
2019-02-17T07:34:23.905Z,29.87
2019-02-17T07:36:52.959Z,33.63
2019-02-17T07:39:22.040Z,34.70
2019-02-17T07:41:51.074Z,34.57
2019-02-17T07:44:20.125Z,30.23
2019-02-17T07:46:49.255Z,30.37
2019-02-17T07:49:18.333Z,30.70
2019-02-17T07:51:47.363Z,32.23
2019-02-17T07:54:16.318Z,29.33
2019-02-17T07:56:45.364Z,33.10
2019-02-17T07:59:14.441Z,33.90
2019-02-17T08:01:45.604Z,28.60
2019-02-17T08:04:14.205Z,28.83
2019-02-17T08:06:43.255Z,35.47
2019-02-17T08:09:12.195Z,28.23
2019-02-17T08:11:41.219Z,34.43
2019-02-17T08:14:10.248Z,29.77
2019-02-17T08:16:39.232Z,31.90
2019-02-17T08:19:08.255Z,30.77
2019-02-17T08:21:37.257Z,34.30
2019-02-17T08:24:06.253Z,33.70
2019-02-17T08:26:35.272Z,32.10
2019-02-17T08:29:04.302Z,33.30
2019-02-17T08:31:33.308Z,34.30
2019-02-17T08:34:02.416Z,28.40
2019-02-17T08:36:50.657Z,35.43
2019-02-17T08:39:19.701Z,30.77
2019-02-17T08:41:48.679Z,29.33
2019-02-17T08:44:17.787Z,33.10
2019-02-17T08:46:47.074Z,30.43
2019-02-17T08:49:16.098Z,28.40
2019-02-17T08:51:45.129Z,35.90
2019-02-17T08:54:14.169Z,34.20
2019-02-17T08:56:43.199Z,27.33
2019-02-17T08:59:12.208Z,29.83
2019-02-17T09:01:41.251Z,31.03
2019-02-17T09:04:10.252Z,32.97
2019-02-17T09:06:39.273Z,29.23
2019-02-17T09:09:08.306Z,33.30
2019-02-17T09:11:37.282Z,31.07
2019-02-17T09:14:06.290Z,32.13
2019-02-17T09:16:35.218Z,30.10
2019-02-17T09:19:04.352Z,29.77
2019-02-17T09:21:33.417Z,30.07
2019-02-17T09:24:02.434Z,29.77
2019-02-17T09:26:31.438Z,27.47
2019-02-17T09:29:00.545Z,30.97
2019-02-17T09:31:29.677Z,28.40
2019-02-17T09:33:58.700Z,28.27
2019-02-17T09:36:27.711Z,26.33
2019-02-17T09:38:56.820Z,27.27
2019-02-17T09:41:25.824Z,25.80
2019-02-17T09:43:54.928Z,26.73
2019-02-17T09:46:24.005Z,30.37
2019-02-17T09:48:52.965Z,26.27
2019-02-17T09:51:21.924Z,21.50
2019-02-17T09:53:50.984Z,26.77
2019-02-17T09:56:20.056Z,27.10
2019-02-17T09:58:49.106Z,24.03
2019-02-17T10:01:18.146Z,25.57
2019-02-17T10:03:47.177Z,24.60
2019-02-17T10:06:16.218Z,23.73
2019-02-17T10:08:45.298Z,21.03
2019-02-17T10:11:14.323Z,25.17
2019-02-17T10:13:43.251Z,23.23
2019-02-17T10:16:12.283Z,22.00
2019-02-17T10:18:41.221Z,20.17
2019-02-17T10:21:10.234Z,21.30
2019-02-17T10:23:39.302Z,19.43
2019-02-17T10:26:08.426Z,20.33
2019-02-17T10:28:42.463Z,24.97
2019-02-17T10:31:08.141Z,21.90
2019-02-17T10:33:37.175Z,20.23
2019-02-17T10:36:06.153Z,21.90
2019-02-17T10:38:35.238Z,21.67
2019-02-17T10:41:04.286Z,20.37
2019-02-17T10:43:33.329Z,17.57
2019-02-17T10:46:02.350Z,17.83
2019-02-17T10:48:31.300Z,20.60
2019-02-17T10:51:00.275Z,17.87
2019-02-17T10:53:29.245Z,18.53
2019-02-17T10:55:58.307Z,17.43
2019-02-17T10:58:27.308Z,17.63
2019-02-17T11:00:56.394Z,14.40
2019-02-17T11:03:25.539Z,15.53
2019-02-17T11:05:54.618Z,17.97
2019-02-17T11:08:23.691Z,15.97
2019-02-17T11:10:52.748Z,17.17
2019-02-17T11:13:21.809Z,15.97
2019-02-17T11:15:50.743Z,17.40
2019-02-17T11:18:19.793Z,16.93
2019-02-17T11:20:48.824Z,17.20
2019-02-17T11:23:17.858Z,15.20
2019-02-17T11:25:46.910Z,13.57
2019-02-17T11:28:16.074Z,17.47
2019-02-17T11:30:45.099Z,16.70
2019-02-17T11:33:14.179Z,15.33
2019-02-17T11:35:43.246Z,15.60
2019-02-17T11:38:12.362Z,17.07
2019-02-17T11:40:41.361Z,13.47
2019-02-17T11:43:10.381Z,13.07
2019-02-17T11:45:39.406Z,12.80
2019-02-17T11:48:08.523Z,16.13
2019-02-17T11:50:37.593Z,14.23
2019-02-17T11:53:06.689Z,14.67
2019-02-17T11:55:35.697Z,13.20
2019-02-17T11:58:04.742Z,13.90
2019-02-17T12:00:33.746Z,12.40
2019-02-17T12:03:07.941Z,14.27
2019-02-17T12:05:33.522Z,13.73
2019-02-17T12:08:02.526Z,13.53
2019-02-17T12:10:31.595Z,15.87
2019-02-17T12:13:00.612Z,13.73
2019-02-17T12:15:29.641Z,12.30
2019-02-17T12:17:59.385Z,14.97
2019-02-17T12:20:46.026Z,12.40
2019-02-17T12:23:18.969Z,12.77
2019-02-17T12:26:05.828Z,12.47
2019-02-17T12:28:56.777Z,12.37
2019-02-17T12:31:29.024Z,12.67
2019-02-17T12:33:57.998Z,10.83
2019-02-17T12:36:27.055Z,12.37
2019-02-17T12:38:56.139Z,13.53
2019-02-17T12:41:25.141Z,13.23
2019-02-17T12:43:54.245Z,13.03
2019-02-17T12:46:23.264Z,12.33
2019-02-17T12:48:52.282Z,16.70
2019-02-17T12:51:21.330Z,14.27
2019-02-17T12:53:50.414Z,14.77
2019-02-17T12:56:19.493Z,13.50
2019-02-17T12:58:48.522Z,17.50
2019-02-17T13:01:17.480Z,15.33
2019-02-17T13:03:46.480Z,13.97
2019-02-17T13:06:15.560Z,18.60
2019-02-17T13:08:44.645Z,13.33
2019-02-17T13:11:13.641Z,15.50
2019-02-17T13:13:42.695Z,15.10
2019-02-17T13:16:11.763Z,14.87
2019-02-17T13:18:40.809Z,15.00
2019-02-17T13:21:09.840Z,13.07
2019-02-17T13:23:38.882Z,12.77
2019-02-17T13:26:07.923Z,11.67
2019-02-17T13:28:36.904Z,14.33
2019-02-17T13:31:05.961Z,14.43
2019-02-17T13:33:39.145Z,15.43
2019-02-17T13:36:05.728Z,13.90
2019-02-17T13:38:34.779Z,12.40
2019-02-17T13:41:03.788Z,16.33
2019-02-17T13:43:32.805Z,12.13
2019-02-17T13:46:01.933Z,12.47
2019-02-17T13:48:30.996Z,14.60
2019-02-17T13:51:00.039Z,13.73
2019-02-17T13:53:29.074Z,13.53
2019-02-17T13:55:58.113Z,17.13
2019-02-17T13:58:27.142Z,11.93
2019-02-17T14:00:56.151Z,11.33
2019-02-17T14:03:25.189Z,10.20
2019-02-17T14:05:54.192Z,10.73
2019-02-17T14:08:23.233Z,14.10
2019-02-17T14:10:52.309Z,12.67
2019-02-17T14:13:21.305Z,12.50
2019-02-17T14:15:50.313Z,12.60
2019-02-17T14:18:19.353Z,12.80
2019-02-17T14:20:48.496Z,11.87
2019-02-17T14:23:17.633Z,12.40
2019-02-17T14:25:46.765Z,12.73
2019-02-17T14:28:15.778Z,18.13
2019-02-17T14:30:44.787Z,12.90
2019-02-17T14:33:13.857Z,10.03
2019-02-17T14:35:42.899Z,12.03
2019-02-17T14:38:11.971Z,13.87
2019-02-17T14:40:41.011Z,12.87
2019-02-17T14:43:10.048Z,15.87
2019-02-17T14:45:39.098Z,14.87
2019-02-17T14:48:08.154Z,14.13
2019-02-17T14:50:37.282Z,12.07
2019-02-17T14:53:06.250Z,12.00
2019-02-17T14:55:35.241Z,14.73
2019-02-17T14:58:05.716Z,13.17
2019-02-17T15:00:35.013Z,10.43
2019-02-17T15:03:04.009Z,12.80
2019-02-17T15:05:33.065Z,14.53
2019-02-17T15:08:02.125Z,14.50
2019-02-17T15:10:31.171Z,13.50
2019-02-17T15:13:00.150Z,16.57
2019-02-17T15:15:29.136Z,11.70
2019-02-17T15:17:58.155Z,13.67
2019-02-17T15:20:27.144Z,13.97
2019-02-17T15:22:56.197Z,15.93
2019-02-17T15:25:25.173Z,15.23
2019-02-17T15:27:54.261Z,13.77
2019-02-17T15:30:23.320Z,13.50
2019-02-17T15:32:52.373Z,13.47
2019-02-17T15:35:40.607Z,14.70
2019-02-17T15:38:09.677Z,16.27
2019-02-17T15:40:38.724Z,17.47
2019-02-17T15:43:07.836Z,16.40
2019-02-17T15:45:38.053Z,15.80
2019-02-17T15:48:07.098Z,12.37
2019-02-17T15:50:36.045Z,16.00
2019-02-17T15:53:05.090Z,15.33
2019-02-17T15:55:34.054Z,15.57
2019-02-17T15:58:03.101Z,18.27
2019-02-17T16:00:32.135Z,15.93
2019-02-17T16:03:01.170Z,14.83
2019-02-17T16:05:30.207Z,18.07
2019-02-17T16:07:59.252Z,16.27
2019-02-17T16:10:28.351Z,17.57
2019-02-17T16:12:57.361Z,18.23
2019-02-17T16:15:26.502Z,15.80
2019-02-17T16:17:55.545Z,16.50
2019-02-17T16:20:24.583Z,15.50
2019-02-17T16:22:53.588Z,14.57
2019-02-17T16:25:22.641Z,16.90
2019-02-17T16:27:51.693Z,17.77
2019-02-17T16:30:20.777Z,17.17
2019-02-17T16:32:49.783Z,16.37
2019-02-17T16:35:18.741Z,16.53
2019-02-17T16:37:48.044Z,18.50
2019-02-17T16:40:17.159Z,16.80
2019-02-17T16:42:46.232Z,17.77
2019-02-17T16:45:15.276Z,16.23
2019-02-17T16:47:44.438Z,17.43
2019-02-17T16:50:15.896Z,15.03
2019-02-17T16:52:44.973Z,16.10
2019-02-17T16:55:14.070Z,17.33
2019-02-17T16:57:43.054Z,16.63
2019-02-17T17:00:14.745Z,13.27
2019-02-17T17:02:43.794Z,16.70
2019-02-17T17:05:12.800Z,17.87
2019-02-17T17:07:41.796Z,18.00
2019-02-17T17:10:10.833Z,16.93
2019-02-17T17:12:39.908Z,16.93
2019-02-17T17:15:09.005Z,16.43
2019-02-17T17:17:38.029Z,16.10
2019-02-17T17:20:07.778Z,18.50
2019-02-17T17:22:36.757Z,17.03
2019-02-17T17:25:06.301Z,16.83
2019-02-17T17:27:35.284Z,18.30
2019-02-17T17:30:04.810Z,17.90
2019-02-17T17:32:33.881Z,18.33
2019-02-17T17:35:03.021Z,18.33
2019-02-17T17:37:32.085Z,19.13
2019-02-17T17:40:01.153Z,18.50
2019-02-17T17:42:30.176Z,20.57
2019-02-17T17:44:59.177Z,24.00
2019-02-17T17:47:28.240Z,19.47
2019-02-17T17:49:57.246Z,22.80
2019-02-17T17:52:26.393Z,21.70
2019-02-17T17:54:55.485Z,21.30
2019-02-17T17:57:24.479Z,19.77
2019-02-17T17:59:53.494Z,19.87
2019-02-17T18:02:22.598Z,20.70
2019-02-17T18:04:51.615Z,20.87
2019-02-17T18:07:20.665Z,20.33
2019-02-17T18:09:49.702Z,20.30
2019-02-17T18:12:18.690Z,24.47
2019-02-17T18:14:47.734Z,22.00
2019-02-17T18:17:16.820Z,22.83
2019-02-17T18:19:45.856Z,20.07
2019-02-17T18:22:14.931Z,23.53
2019-02-17T18:24:44.201Z,19.20
2019-02-17T18:27:13.266Z,19.63
2019-02-17T18:29:42.307Z,19.17
2019-02-17T18:32:11.351Z,21.70
2019-02-17T18:34:40.380Z,21.40
2019-02-17T18:37:09.364Z,19.90
2019-02-17T18:39:38.467Z,22.23
2019-02-17T18:42:07.520Z,20.70
2019-02-17T18:44:36.547Z,19.63
2019-02-17T18:47:05.523Z,20.43
2019-02-17T18:49:34.556Z,19.47
2019-02-17T18:52:03.586Z,18.10
2019-02-17T18:54:34.617Z,20.70
2019-02-17T18:57:08.339Z,18.33
2019-02-17T18:59:34.313Z,18.00
2019-02-17T19:02:03.299Z,17.63
2019-02-17T19:04:32.407Z,18.17
2019-02-17T19:07:01.519Z,19.07
2019-02-17T19:09:30.587Z,17.63
2019-02-17T19:11:59.641Z,18.47
2019-02-17T19:14:28.639Z,18.73
2019-02-17T19:16:57.705Z,17.43
2019-02-17T19:19:26.739Z,19.07
2019-02-17T19:21:55.769Z,18.47
2019-02-17T19:24:24.833Z,19.03
2019-02-17T19:26:53.922Z,20.40
2019-02-17T19:29:23.006Z,19.27
2019-02-17T19:31:52.153Z,19.83
2019-02-17T19:34:21.229Z,19.80
2019-02-17T19:36:50.337Z,19.37
2019-02-17T19:39:19.391Z,18.43
2019-02-17T19:42:07.634Z,17.30
2019-02-17T19:44:36.784Z,17.00
2019-02-17T19:47:05.805Z,18.63
2019-02-17T19:49:34.863Z,17.90
2019-02-17T19:52:03.927Z,16.33
2019-02-17T19:54:33.030Z,14.67
2019-02-17T19:57:02.284Z,16.87
2019-02-17T19:59:31.322Z,15.53
2019-02-17T20:02:00.386Z,14.90
2019-02-17T20:04:32.375Z,16.03
2019-02-17T20:07:01.449Z,16.83
2019-02-17T20:09:30.505Z,17.23
2019-02-17T20:11:59.510Z,13.67
2019-02-17T20:14:28.512Z,14.30
2019-02-17T20:16:57.548Z,14.60
2019-02-17T20:19:26.493Z,14.40
2019-02-17T20:21:55.660Z,17.83
2019-02-17T20:24:24.705Z,16.83
2019-02-17T20:26:53.765Z,16.80
2019-02-17T20:29:22.933Z,15.47
2019-02-17T20:31:52.004Z,15.03
2019-02-17T20:34:21.039Z,16.37
2019-02-17T20:36:50.086Z,14.90
2019-02-17T20:39:19.146Z,15.43
2019-02-17T20:41:48.125Z,15.40
2019-02-17T20:44:17.172Z,24.90
2019-02-17T20:46:46.267Z,17.70
2019-02-17T20:49:15.268Z,14.27
2019-02-17T20:51:44.290Z,13.40
2019-02-17T20:54:13.255Z,13.20
2019-02-17T20:56:42.225Z,13.87
2019-02-17T20:59:11.259Z,13.10
2019-02-17T21:01:40.293Z,14.30
2019-02-17T21:04:09.308Z,14.33
2019-02-17T21:06:38.340Z,15.37
2019-02-17T21:09:07.406Z,15.07
2019-02-17T21:11:36.436Z,14.63
2019-02-17T21:14:05.494Z,17.10
2019-02-17T21:16:34.549Z,14.17
2019-02-17T21:19:03.572Z,15.17
2019-02-17T21:21:32.550Z,14.40
2019-02-17T21:24:01.530Z,14.20
2019-02-17T21:26:30.530Z,13.47
2019-02-17T21:28:59.493Z,13.73
2019-02-17T21:31:28.494Z,14.47
2019-02-17T21:33:57.566Z,12.80
2019-02-17T21:36:26.499Z,13.10
2019-02-17T21:38:55.525Z,13.50
2019-02-17T21:41:24.692Z,14.17
2019-02-17T21:43:53.828Z,16.87
2019-02-17T21:46:22.886Z,13.37
2019-02-17T21:48:51.909Z,14.07
2019-02-17T21:51:40.117Z,13.13
2019-02-17T21:54:09.256Z,16.63
2019-02-17T21:56:38.323Z,14.47
2019-02-17T21:59:07.342Z,14.43
2019-02-17T22:01:36.378Z,14.33
2019-02-17T22:04:05.433Z,13.70
2019-02-17T22:06:34.504Z,15.50
2019-02-17T22:09:04.204Z,13.40
2019-02-17T22:11:33.274Z,14.27
2019-02-17T22:14:02.325Z,13.17
2019-02-17T22:16:31.397Z,14.67
2019-02-17T22:19:00.534Z,14.00
2019-02-17T22:21:29.528Z,13.67
2019-02-17T22:23:58.616Z,14.73
2019-02-17T22:26:27.689Z,13.47
2019-02-17T22:28:56.701Z,13.00
2019-02-17T22:31:25.704Z,17.13
2019-02-17T22:33:54.777Z,14.90
2019-02-17T22:36:23.848Z,13.43
2019-02-17T22:38:53.045Z,13.77
2019-02-17T22:41:22.174Z,12.73
2019-02-17T22:43:51.153Z,13.97
2019-02-17T22:46:20.184Z,13.77
2019-02-17T22:48:49.261Z,13.27
2019-02-17T22:51:18.360Z,12.77
2019-02-17T22:53:47.387Z,14.20
2019-02-17T22:56:16.361Z,13.57
2019-02-17T22:58:45.413Z,13.70
2019-02-17T23:01:17.746Z,13.70
2019-02-17T23:03:46.770Z,14.47
2019-02-17T23:06:15.877Z,13.93
2019-02-17T23:08:44.900Z,14.13
2019-02-17T23:11:13.893Z,13.07
2019-02-17T23:13:42.878Z,14.50
2019-02-17T23:16:12.054Z,13.73
2019-02-17T23:18:41.137Z,15.93
2019-02-17T23:21:10.202Z,13.93
2019-02-17T23:23:39.259Z,15.27
2019-02-17T23:26:08.209Z,15.10
2019-02-17T23:28:37.229Z,14.57
2019-02-17T23:31:06.238Z,12.80
2019-02-17T23:33:35.217Z,13.40
2019-02-17T23:36:04.237Z,12.77
2019-02-17T23:38:33.338Z,17.40
2019-02-17T23:41:03.224Z,14.53
2019-02-17T23:43:32.358Z,13.70
2019-02-17T23:46:01.421Z,14.47
2019-02-17T23:48:30.462Z,14.63
2019-02-17T23:50:59.496Z,13.97
2019-02-17T23:53:28.593Z,14.37
2019-02-17T23:55:57.638Z,14.63
2019-02-17T23:58:26.645Z,15.93
